AirNav   Pilot Hours Calculator
 
 362 users online  

FD48 Deep Forest Airport
Jacksonville, Florida, USA

GOING TO JACKSONVILLE?


FAA INFORMATION EFFECTIVE 03 DECEMBER 2020

Location

FAA Identifier: FD48
Lat/Long: 30-14-30.8700N 081-26-59.3070W
30-14.514500N 081-26.988450W
30.2419083,-81.4498075
(estimated)
Elevation: 24 ft. / 7 m (estimated)
Variation: 03W (1985)
From city: 12 miles E of JACKSONVILLE, FL
Time zone: UTC -5 (UTC -4 during Daylight Saving Time)
Zip code: 32224

Airport Operations

Airport use: Private use. Permission required prior to landing
Activation date: 10/1985
Control tower: no
ARTCC: JACKSONVILLE CENTER
FSS: GAINESVILLE FLIGHT SERVICE STATION
Attendance: UNATNDD
Wind indicator: yes
Segmented circle: no
Lights: FOR MIRL RY 18/36 CALL 904-509-8501

Airport Communications

WX ASOS at CRG (7 nm NW): PHONE 904-646-4670
WX AWOS-3 at NIP (12 nm W): 119.275
WX AWOS-3PT at SGJ (18 nm S): 119.625 (904-824-7084)
WX AWOS-3 at HEG (19 nm W): 119.275 (904-695-0334)
WX ASOS at JAX (20 nm NW): 125.85 (904-741-4304)

Nearby radio navigation aids

VOR radial/distance  VOR name  Freq  Var
CRGr155/6.6CRAIG VORTAC114.5003W
SGJr346/18.2ST AUGUSTINE VOR/DME109.4006W
VQQr089/(22.9)CECIL VOR117.9003W

 
NDB name  Hdg/Dist  Freq  Var  ID
REYNOLDS040/19.733807WRYD .-. -.-- -..

Airport Services

Fuel available: A1

Runway Information

Runway 18/36

Dimensions: 6425 x 60 ft. / 1958 x 18 m
Surface: asphalt
Runway edge lights: non-standard
NSTD MIRL; INNER 5000 FT PORTION OF RY LGTD WITH WHITE LGTS; DSPLCD THLDS LGTD WITH BLUE LGTS; THLD LGTD WITH RED LGTS.
RUNWAY 18  RUNWAY 36
Traffic pattern: leftleft
Displaced threshold: 700 ft.700 ft.

Airport Ownership and Management from official FAA records

Ownership: Privately-owned
Owner: GEORGE HODGES, JR.
PO BOX 16771
JACKSONVILLE, FL 32245-6771
Phone 904-509-8501
Manager: JOHN R. CATHEY
P.O. BOX 17393
JACKSONVILLE, FL 32245-7393
Phone 904-223-0153

Airport Operational Statistics

Aircraft based on the field: 1
Jet airplanes: 1
    

Additional Remarks

FOR CD CTC JACKSONVILLE APCH AT 904-741-0284.

Instrument Procedures

There are no published instrument procedures at FD48.

Some nearby airports with instrument procedures:

KCRG - Jacksonville Executive Airport at Craig (7 nm NW)
KNRB - Mayport Naval Station (Adm David L. McDonald Field) (9 nm N)
KNIP - Jacksonville Naval Air Station (Towers Field) (12 nm W)
KSGJ - Northeast Florida Regional Airport (18 nm S)
KHEG - Herlong Recreational Airport (19 nm W)
KJAX - Jacksonville International Airport (20 nm NW)
 
Loc | Ops | Rwys | IFR | FBO | Links
Com | Nav | Svcs | Stats | Notes
Area around FD48 (Deep Forest Airport)
 
Road maps at: MapQuest Bing Google
 
Aerial photo
No photo
 
Sectional chart

 
Airport distance calculator
Flying to Deep Forest Airport? Find the distance to fly.

From to FD48

Sunrise and sunset
Times for 05-Dec-2020
 Local
(UTC-5)
 Zulu
(UTC)
Morning civil twilight06:4311:43
Sunrise07:0912:09
Sunset17:2422:24
Evening civil twilight17:5022:50

Current date and time
Zulu (UTC)  05-Dec-2020 09:28:20
Local (UTC-5)  05-Dec-2020 04:28:20
 
METAR
KCRG 
6nm NW 
050853Z 31012KT 10SM CLR 15/12 A3004 RMK AO2 SLP171 T01500117 53007
KNRB 
9nm N 
050852Z AUTO 31008KT 10SM CLR 14/13 A3003 RMK AO2 SLP169 60000 T01440128 53008 $
KNIP 
11nm W 
050853Z 31013KT 10SM BKN250 14/09 A3005 RMK AO2 SLP171 T01390094 53008
KSGJ 
18nm SE 
050921Z AUTO 30009KT SCT024 16/13 A3004 RMK AO2 P0001 PWINO $
KHEG 
19nm W 
050915Z AUTO 29007KT 10SM CLR 12/09 A3007 RMK AO2
KJAX 
20nm NW 
050856Z 31010KT 10SM FEW010 BKN250 12/11 A3004 RMK AO2 SLP173 T01220111 53010 $
TAF
KCRG 
6nm NW 
050805Z 0508/0606 30011KT P6SM SCT025 BKN040 FM051300 31011KT P6SM FEW250 FM060100 32004KT P6SM SCT250
KNRB 
9nm N 
0423/0523 20010KT 9999 SCT020 OVC080 QNH3000INS TEMPO 0503/0506 21015G20KT 4800 SHRA BR BKN020 OVC050 FM050900 31010KT 9999 SCT025 SCT100 BKN250 QNH3005INS LAST NO AMENDS AFT 0423 NEXT 0707 AUTOMATED SENSOR METWATCH 0422 TIL 0710 T09/0511Z T17/0519Z FN20021
KNIP 
11nm W 
0507/0607 27008KT 9999 VCSH BKN020 QNH2998INS TEMPO 0507/0510 BKN008 FM051000 30009KT 9999 SCT030 BKN250 QNH3000INS FM051400 33009KT 9999 FEW050 FEW250 QNH2998INS BECMG 0522/0600 VRB06KT FEW050 FEW250 QNH2999INS T09/0513Z T17/0520Z FN00205
KSGJ 
18nm SE 
050803Z 0508/0606 25007KT P6SM VCSH BKN015 OVC040 TEMPO 0508/0510 BKN008 FM051000 29010KT P6SM SCT025 SCT050 FM051400 34008KT P6SM FEW250 FM060000 34003KT P6SM SCT250
KJAX 
20nm NW 
050804Z 0508/0606 30009KT P6SM SCT025 BKN040 FM051300 31009KT P6SM FEW250 FM060100 28002KT P6SM SCT250
NOTAMs
Click for the latest NOTAMs
NOTAMs are issued by the DoD/FAA and will open in a separate window not controlled by AirNav.

 

 
 

Would you like to see your business listed on this page?

 If your business provides an interesting product or service to pilots, flight crews, aircraft, or users of the Deep Forest Airport, you should consider listing it here.  To start the listing process, click on the button below
 
Add a business
 

Other Pages about Deep Forest Airport

Update a link
 
Copyright © AirNav, LLC. All rights reserved. Privacy Policy  Contact